Time;durP1;ratioP1;P1;durP2;ratioP2;P2;SDS_P1;SDS_P2;PMS_P1;PMS_P2;Temp;Humidity;BMP_temperature;BMP_pressure;BME280_temperature;BME280_humidity;BME280_pressure;Samples;Min_cycle;Max_cycle;Signal;HPM_P1;HPM_P2
2024/03/12 00:01:10;;;;;;;4.23;3.80;;;5.90;18.00;;;;;;5091297;28;21004;-74
2024/03/12 00:03:36;;;;;;;6.97;3.80;;;5.80;18.30;;;;;;5092176;28;20415;-73
2024/03/12 00:06:01;;;;;;;7.77;2.97;;;5.70;18.00;;;;;;5092313;28;20903;-71
2024/03/12 00:08:30;;;;;;;4.27;3.20;;;5.60;20.10;;;;;;5091753;28;20415;-72
2024/03/12 00:10:55;;;;;;;7.47;3.37;;;5.50;21.00;;;;;;5092314;28;20279;-73
2024/03/12 00:13:23;;;;;;;6.30;3.73;;;5.50;20.70;;;;;;5092274;28;20553;-73
2024/03/12 00:15:48;;;;;;;5.03;3.90;;;5.40;21.40;;;;;;5091882;28;20205;-72
2024/03/12 00:18:14;;;;;;;5.97;4.20;;;5.30;21.70;;;;;;5092151;28;20480;-73
2024/03/12 00:20:47;;;;;;;4.03;2.60;;;5.30;22.30;;;;;;5092181;28;20280;-73
2024/03/12 00:23:15;;;;;;;5.50;3.50;;;5.20;22.50;;;;;;5092077;28;20183;-72
2024/03/12 00:25:40;;;;;;;5.93;3.57;;;5.00;24.50;;;;;;5092398;28;20407;-71
2024/03/12 00:28:08;;;;;;;4.87;3.20;;;5.00;25.40;;;;;;5094208;28;20407;-72
2024/03/12 00:30:34;;;;;;;4.03;3.23;;;4.90;25.50;;;;;;5098315;28;20205;-71
2024/03/12 00:33:00;;;;;;;5.00;3.20;;;4.90;26.30;;;;;;5098043;28;20438;-72
2024/03/12 00:35:32;;;;;;;3.80;3.40;;;4.80;26.50;;;;;;5091607;28;20229;-72
2024/03/12 00:37:58;;;;;;;5.43;2.80;;;4.70;27.60;;;;;;5092187;28;20917;-72
2024/03/12 00:40:33;;;;;;;4.30;2.40;;;4.70;28.10;;;;;;5090698;28;20921;-72
2024/03/12 00:43:08;;;;;;;4.23;2.67;;;4.70;28.10;;;;;;5092144;28;20433;-72
2024/03/12 00:45:37;;;;;;;6.07;2.93;;;4.70;29.70;;;;;;5091672;28;20424;-73
2024/03/12 00:48:09;;;;;;;3.60;2.60;;;4.70;29.90;;;;;;5092037;28;20445;-72
2024/03/12 00:50:35;;;;;;;4.00;2.57;;;4.80;30.80;;;;;;5091872;28;20438;-73
2024/03/12 00:53:03;;;;;;;3.63;2.10;;;4.90;30.90;;;;;;5090760;28;20565;-73
2024/03/12 00:55:30;;;;;;;4.00;2.77;;;4.90;29.80;;;;;;5090459;28;20964;-72
2024/03/12 00:57:57;;;;;;;4.00;3.10;;;5.00;28.30;;;;;;5092434;28;20420;-72
2024/03/12 01:00:28;;;;;;;8.97;3.20;;;5.00;28.30;;;;;;5091726;28;20833;-72
2024/03/12 01:02:57;;;;;;;5.03;3.03;;;5.00;27.30;;;;;;5091741;28;20411;-73
2024/03/12 01:05:24;;;;;;;5.33;2.97;;;4.90;26.50;;;;;;5091648;28;20490;-73
2024/03/12 01:07:54;;;;;;;5.33;3.57;;;4.90;26.90;;;;;;5092023;28;20917;-72
2024/03/12 01:10:20;;;;;;;3.90;2.50;;;4.90;26.90;;;;;;5091883;28;20419;-72
2024/03/12 01:12:53;;;;;;;5.70;2.97;;;4.90;26.80;;;;;;5090751;28;20785;-72
2024/03/12 01:15:20;;;;;;;4.53;2.77;;;4.80;26.70;;;;;;5091838;28;20419;-72
2024/03/12 01:17:47;;;;;;;2.67;1.80;;;4.70;25.10;;;;;;5092010;28;20495;-72
2024/03/12 01:20:16;;;;;;;3.50;2.67;;;4.60;25.30;;;;;;5091975;28;20498;-71
2024/03/12 01:22:43;;;;;;;2.73;2.00;;;4.50;26.00;;;;;;5095699;28;20508;-72
2024/03/12 01:25:08;;;;;;;5.20;3.03;;;4.40;26.70;;;;;;5094145;28;20463;-73
2024/03/12 01:27:35;;;;;;;5.70;3.70;;;4.40;26.90;;;;;;5094340;28;20415;-74
2024/03/12 01:30:06;;;;;;;3.78;3.10;;;4.30;26.80;;;;;;5095396;28;20414;-72
2024/03/12 01:32:35;;;;;;;3.63;2.80;;;4.20;27.80;;;;;;5095654;28;20181;-73
2024/03/12 01:35:08;;;;;;;4.57;3.40;;;4.20;28.20;;;;;;5094656;28;20513;-74
2024/03/12 01:37:34;;;;;;;5.63;3.20;;;4.10;29.30;;;;;;5095395;28;20457;-74
2024/03/12 01:40:00;;;;;;;3.90;2.95;;;4.10;30.10;;;;;;5095207;28;20448;-72
2024/03/12 01:42:25;;;;;;;5.40;3.33;;;4.10;30.80;;;;;;5094980;28;20224;-72
2024/03/12 01:44:51;;;;;;;3.40;2.77;;;4.00;30.90;;;;;;5093574;28;20184;-73
2024/03/12 01:47:17;;;;;;;5.90;3.33;;;4.00;31.30;;;;;;5095051;28;20241;-73
2024/03/12 01:49:48;;;;;;;4.40;2.83;;;3.90;30.40;;;;;;5095264;28;20232;-74
2024/03/12 01:52:15;;;;;;;4.50;2.80;;;3.80;32.00;;;;;;5094877;28;20689;-73
2024/03/12 01:54:43;;;;;;;5.60;3.20;;;3.70;31.40;;;;;;5094897;28;20418;-72
2024/03/12 01:57:10;;;;;;;4.28;3.00;;;3.70;31.90;;;;;;5093809;28;20593;-73
2024/03/12 01:59:36;;;;;;;6.90;3.53;;;3.60;31.80;;;;;;5094963;28;20168;-71
2024/03/12 02:02:01;;;;;;;4.73;3.50;;;3.50;32.40;;;;;;5093695;28;20247;-73
2024/03/12 02:04:27;;;;;;;5.60;3.63;;;3.50;31.70;;;;;;5095069;28;20174;-72
2024/03/12 02:06:53;;;;;;;5.33;3.17;;;3.40;31.60;;;;;;5094822;28;20265;-73
2024/03/12 02:09:21;;;;;;;4.85;3.55;;;3.50;34.00;;;;;;5093949;28;20322;-73
2024/03/12 02:11:47;;;;;;;5.47;3.25;;;3.40;32.90;;;;;;5094267;28;20201;-73
2024/03/12 02:14:16;;;;;;;7.05;3.58;;;3.40;32.40;;;;;;5094733;28;20189;-72
2024/03/12 02:16:42;;;;;;;5.13;3.20;;;3.40;32.60;;;;;;5093443;28;20491;-71
2024/03/12 02:19:08;;;;;;;5.03;3.35;;;3.40;33.00;;;;;;5093572;28;20175;-72
2024/03/12 02:21:34;;;;;;;4.57;3.57;;;3.30;32.60;;;;;;5094803;28;20217;-72
2024/03/12 02:24:00;;;;;;;3.30;2.33;;;3.30;34.10;;;;;;5095292;28;20176;-73
2024/03/12 02:26:25;;;;;;;4.50;3.20;;;3.20;33.30;;;;;;5095084;28;20703;-73
2024/03/12 02:28:51;;;;;;;4.60;3.97;;;3.20;34.80;;;;;;5094634;28;20418;-73
2024/03/12 02:31:16;;;;;;;4.27;2.97;;;3.10;35.50;;;;;;5125293;22;20265;-68
2024/03/12 02:33:42;;;;;;;4.10;2.97;;;3.10;35.20;;;;;;5115552;28;20237;-69
2024/03/12 02:36:09;;;;;;;4.40;3.00;;;3.10;34.90;;;;;;5115032;28;20288;-68
2024/03/12 02:38:38;;;;;;;4.35;2.60;;;2.90;33.70;;;;;;5114630;27;20203;-68
2024/03/12 02:41:07;;;;;;;4.57;3.08;;;2.90;36.90;;;;;;5114099;28;20218;-68
2024/03/12 02:43:34;;;;;;;3.85;2.72;;;3.00;36.50;;;;;;5114216;28;20544;-68
2024/03/12 02:46:00;;;;;;;3.45;3.00;;;3.00;37.30;;;;;;5114000;28;20171;-69
2024/03/12 02:48:26;;;;;;;5.25;3.08;;;3.00;36.50;;;;;;5114053;28;20165;-69
2024/03/12 02:50:52;;;;;;;5.50;3.03;;;3.00;36.50;;;;;;5112863;28;20722;-69
2024/03/12 02:53:17;;;;;;;3.87;2.70;;;2.90;36.40;;;;;;5114076;28;20180;-68
2024/03/12 02:55:43;;;;;;;7.87;3.10;;;2.90;36.40;;;;;;5113502;28;20174;-68
2024/03/12 02:58:08;;;;;;;4.33;2.70;;;2.90;36.40;;;;;;5113805;28;20598;-69
2024/03/12 03:00:35;;;;;;;3.93;3.40;;;2.80;36.30;;;;;;5113688;28;20602;-69
2024/03/12 03:03:02;;;;;;;6.97;3.72;;;2.80;36.30;;;;;;5113810;28;20165;-70
2024/03/12 03:05:28;;;;;;;3.83;2.80;;;2.80;36.30;;;;;;5114736;28;20169;-69
2024/03/12 03:07:54;;;;;;;5.50;3.63;;;2.80;37.00;;;;;;5115593;28;20177;-69
2024/03/12 03:10:20;;;;;;;6.38;3.30;;;2.70;36.60;;;;;;5115202;28;20413;-70
2024/03/12 03:12:45;;;;;;;5.47;3.10;;;2.70;36.20;;;;;;5114513;28;20271;-69
2024/03/12 03:15:14;;;;;;;3.13;2.83;;;2.70;36.70;;;;;;5113369;28;20184;-69
2024/03/12 03:17:42;;;;;;;3.53;2.75;;;2.70;37.00;;;;;;5113659;28;20533;-69
2024/03/12 03:20:12;;;;;;;3.85;2.05;;;2.70;36.70;;;;;;5113550;28;20676;-69
2024/03/12 03:22:39;;;;;;;3.50;2.50;;;2.70;36.80;;;;;;5113317;28;20207;-68
2024/03/12 03:25:05;;;;;;;5.75;2.90;;;2.70;36.60;;;;;;5113140;28;20528;-69
2024/03/12 03:27:31;;;;;;;7.70;3.22;;;2.80;37.80;;;;;;5113114;28;20194;-70
2024/03/12 03:29:59;;;;;;;5.13;3.43;;;2.80;38.10;;;;;;5113330;28;20170;-68
2024/03/12 03:32:25;;;;;;;4.50;2.65;;;2.90;37.30;;;;;;5113029;28;20197;-69
2024/03/12 03:34:51;;;;;;;5.27;2.70;;;3.00;37.30;;;;;;5112953;28;20186;-69
2024/03/12 03:37:17;;;;;;;4.75;3.25;;;3.10;36.50;;;;;;5113095;28;20404;-69
2024/03/12 03:39:42;;;;;;;3.33;2.20;;;3.30;36.70;;;;;;5112831;28;20278;-69
2024/03/12 03:42:08;;;;;;;2.93;2.10;;;3.40;36.80;;;;;;5112959;28;20196;-68
2024/03/12 03:44:34;;;;;;;3.67;2.70;;;3.60;33.80;;;;;;5112166;28;20186;-69
2024/03/12 03:46:59;;;;;;;3.97;2.63;;;3.70;31.90;;;;;;5112753;28;20409;-69
2024/03/12 03:49:25;;;;;;;5.87;3.17;;;3.70;29.90;;;;;;5112767;28;20279;-69
2024/03/12 03:51:52;;;;;;;3.03;2.50;;;3.80;29.50;;;;;;5112711;28;20198;-68
2024/03/12 03:54:17;;;;;;;4.00;2.85;;;3.90;27.60;;;;;;5112705;28;20362;-68
2024/03/12 03:56:45;;;;;;;6.87;2.80;;;4.00;26.90;;;;;;5112518;28;20699;-68
2024/03/12 03:59:13;;;;;;;4.57;2.38;;;4.00;26.30;;;;;;5112693;28;20279;-68
2024/03/12 04:01:39;;;;;;;3.17;2.20;;;4.10;25.70;;;;;;5112411;28;20294;-68
2024/03/12 04:04:11;;;;;;;3.25;2.08;;;4.20;25.70;;;;;;5112839;28;20185;-69
2024/03/12 04:06:40;;;;;;;4.50;2.20;;;4.30;23.80;;;;;;5110866;28;20261;-69
2024/03/12 04:09:05;;;;;;;2.60;1.67;;;4.30;23.20;;;;;;5112539;28;20225;-68
2024/03/12 04:11:33;;;;;;;3.50;1.97;;;4.40;22.30;;;;;;5112444;28;20555;-68
2024/03/12 04:13:59;;;;;;;3.10;1.90;;;4.50;21.70;;;;;;5112491;28;20649;-69
2024/03/12 04:16:25;;;;;;;3.77;2.20;;;4.60;21.40;;;;;;5112225;28;20179;-69
2024/03/12 04:18:51;;;;;;;2.40;1.40;;;4.70;21.20;;;;;;5112270;28;20424;-68
2024/03/12 04:21:17;;;;;;;4.17;1.83;;;4.80;21.20;;;;;;5111152;28;20211;-68
2024/03/12 04:23:42;;;;;;;3.70;2.10;;;4.90;21.10;;;;;;5112947;28;20417;-67
2024/03/12 04:26:08;;;;;;;4.27;2.27;;;5.00;19.60;;;;;;5113098;28;20215;-67
2024/03/12 04:28:36;;;;;;;5.10;2.27;;;5.10;18.90;;;;;;5113242;28;20562;-68
2024/03/12 04:31:01;;;;;;;3.53;1.90;;;5.20;19.40;;;;;;5111471;28;20461;-69
2024/03/12 04:33:27;;;;;;;5.83;2.10;;;5.30;17.50;;;;;;5112651;28;20931;-68
2024/03/12 04:35:53;;;;;;;3.30;1.90;;;5.40;16.70;;;;;;5112490;28;20234;-68
2024/03/12 04:38:18;;;;;;;3.27;2.00;;;5.50;16.10;;;;;;5112429;28;20176;-69
2024/03/12 04:40:47;;;;;;;3.97;2.37;;;5.40;16.20;;;;;;5112286;28;20578;-68
2024/03/12 04:43:13;;;;;;;3.50;2.60;;;5.40;16.30;;;;;;5112481;28;20176;-69
2024/03/12 04:45:40;;;;;;;4.40;2.70;;;5.50;16.20;;;;;;5112367;28;20414;-68
2024/03/12 04:48:12;;;;;;;4.00;2.77;;;5.50;15.40;;;;;;5112302;28;20414;-68
2024/03/12 04:50:38;;;;;;;3.50;2.27;;;5.40;16.20;;;;;;5112108;28;20448;-68
2024/03/12 04:53:07;;;;;;;4.67;2.10;;;5.50;16.00;;;;;;5111095;28;20422;-68
2024/03/12 04:55:34;;;;;;;3.90;2.43;;;5.60;15.10;;;;;;5114466;28;20479;-68
2024/03/12 04:58:00;;;;;;;3.63;2.60;;;5.60;14.90;;;;;;5116430;28;20417;-68
2024/03/12 05:00:25;;;;;;;2.93;2.57;;;5.50;14.50;;;;;;5116166;28;20449;-69
2024/03/12 05:02:51;;;;;;;3.83;2.83;;;5.60;15.00;;;;;;5115998;28;20418;-68
2024/03/12 05:05:21;;;;;;;3.73;2.40;;;5.60;14.40;;;;;;5116043;27;20176;-68
2024/03/12 05:07:47;;;;;;;4.93;3.00;;;5.70;13.30;;;;;;5116208;28;20406;-68
2024/03/12 05:10:16;;;;;;;3.63;2.80;;;5.70;13.20;;;;;;5115884;28;20418;-67
2024/03/12 05:12:42;;;;;;;4.70;2.63;;;5.70;12.50;;;;;;5115835;28;20940;-67
2024/03/12 05:15:10;;;;;;;5.63;2.43;;;5.70;13.70;;;;;;5115663;28;20417;-68
2024/03/12 05:17:37;;;;;;;3.30;2.53;;;5.70;12.60;;;;;;5116030;27;20522;-68
2024/03/12 05:20:06;;;;;;;2.83;1.70;;;5.60;13.40;;;;;;5115818;28;20528;-68
2024/03/12 05:22:33;;;;;;;4.77;2.73;;;5.70;14.30;;;;;;5115711;27;20437;-67
2024/03/12 05:24:58;;;;;;;3.43;2.60;;;5.70;14.10;;;;;;5115347;28;20521;-67
2024/03/12 05:27:32;;;;;;;4.70;2.60;;;5.90;13.10;;;;;;5115171;28;20917;-67
2024/03/12 05:29:59;;;;;;;3.60;2.33;;;5.90;12.50;;;;;;5115616;28;20654;-68
2024/03/12 05:32:25;;;;;;;3.53;2.60;;;5.90;12.50;;;;;;5115188;28;20799;-68
2024/03/12 05:34:58;;;;;;;4.20;3.27;;;5.80;13.30;;;;;;5115038;28;20420;-67
2024/03/12 05:38:01;;;;;;;4.53;3.63;;;5.90;12.80;;;;;;5115369;28;20171;-67
2024/03/12 05:48:43;;;;;;;3.80;2.83;;;5.80;13.30;;;;;;5115134;28;20405;-69
2024/03/12 05:51:09;;;;;;;4.37;2.90;;;5.80;14.50;;;;;;5114873;28;20434;-70
2024/03/12 05:53:36;;;;;;;4.80;3.10;;;5.80;13.80;;;;;;5115001;28;20906;-69
2024/03/12 05:56:07;;;;;;;6.33;3.57;;;5.90;13.60;;;;;;5114711;27;20414;-68
2024/03/12 05:58:33;;;;;;;6.27;3.60;;;6.00;12.90;;;;;;5115382;28;20463;-68
2024/03/12 06:00:59;;;;;;;6.67;3.50;;;6.10;12.50;;;;;;5115366;28;20458;-68
2024/03/12 06:03:24;;;;;;;4.70;2.97;;;6.10;12.40;;;;;;5115124;28;20656;-68
2024/03/12 06:05:50;;;;;;;4.73;3.20;;;6.10;12.30;;;;;;5114919;28;20251;-69
2024/03/12 06:08:15;;;;;;;3.70;2.77;;;6.20;12.40;;;;;;5118960;28;20683;-71
2024/03/12 06:10:41;;;;;;;3.67;2.40;;;6.20;11.90;;;;;;5119441;28;20222;-69
2024/03/12 06:13:07;;;;;;;3.30;2.87;;;6.30;12.30;;;;;;5118435;28;20169;-69
2024/03/12 06:15:32;;;;;;;4.97;2.67;;;6.30;11.70;;;;;;5118089;28;20184;-69
2024/03/12 06:17:59;;;;;;;4.53;3.20;;;6.30;12.40;;;;;;5119176;28;20249;-69
2024/03/12 06:20:25;;;;;;;3.03;2.13;;;6.30;12.40;;;;;;5116797;28;20196;-70
2024/03/12 06:22:50;;;;;;;4.90;2.87;;;6.20;12.40;;;;;;5113840;28;21025;-69
2024/03/12 06:25:16;;;;;;;4.80;2.77;;;6.30;12.60;;;;;;5109063;28;20510;-68
2024/03/12 06:27:42;;;;;;;5.07;3.40;;;6.30;12.90;;;;;;5092750;28;20174;-68
2024/03/12 06:30:08;;;;;;;4.37;2.83;;;6.40;12.20;;;;;;5093841;28;20523;-69
2024/03/12 06:32:33;;;;;;;4.40;3.23;;;6.40;12.30;;;;;;5093655;28;20216;-67
2024/03/12 06:35:00;;;;;;;4.83;3.20;;;6.50;12.60;;;;;;5093671;28;20419;-68
2024/03/12 06:37:27;;;;;;;3.80;2.60;;;6.60;11.50;;;;;;5093836;28;20166;-68
2024/03/12 06:39:56;;;;;;;3.90;2.17;;;6.70;10.70;;;;;;5093457;28;20923;-68
2024/03/12 06:42:26;;;;;;;3.70;2.90;;;6.80;9.80;;;;;;5093429;28;20428;-68
2024/03/12 06:44:54;;;;;;;6.47;3.43;;;6.90;9.20;;;;;;5093490;28;20411;-68
2024/03/12 06:47:21;;;;;;;5.97;3.90;;;6.90;9.30;;;;;;5093574;28;20462;-68
2024/03/12 06:49:47;;;;;;;3.90;3.37;;;7.00;9.30;;;;;;5093321;28;20725;-68
2024/03/12 06:52:14;;;;;;;4.60;3.20;;;7.00;9.70;;;;;;5093633;28;20833;-68
2024/03/12 06:54:39;;;;;;;6.20;3.80;;;7.10;8.60;;;;;;5093448;28;20419;-67
2024/03/12 06:57:06;;;;;;;7.10;3.50;;;7.10;8.60;;;;;;5093794;28;20491;-68
2024/03/12 06:59:33;;;;;;;6.17;3.40;;;7.20;8.30;;;;;;5094207;28;20167;-69
2024/03/12 07:02:00;;;;;;;4.87;2.80;;;7.20;7.80;;;;;;5093781;28;20456;-68
2024/03/12 07:04:34;;;;;;;6.20;3.60;;;7.10;8.60;;;;;;5093381;28;20558;-68
2024/03/12 07:07:06;;;;;;;8.83;3.13;;;7.20;8.60;;;;;;5091764;28;20541;-68
2024/03/12 07:09:38;;;;;;;4.47;3.27;;;7.30;7.90;;;;;;5093382;28;20413;-68
2024/03/12 07:12:05;;;;;;;5.27;3.13;;;7.30;8.00;;;;;;5092850;28;20435;-68
2024/03/12 07:14:40;;;;;;;5.00;3.40;;;7.30;6.40;;;;;;5092845;28;20412;-69
2024/03/12 07:17:07;;;;;;;4.10;2.53;;;7.30;6.20;;;;;;5092758;28;20434;-68
2024/03/12 07:19:40;;;;;;;6.87;2.20;;;7.50;6.50;;;;;;5092695;28;20409;-68
2024/03/12 07:22:07;;;;;;;3.93;2.63;;;7.50;4.30;;;;;;5092533;28;20534;-70
2024/03/12 07:24:36;;;;;;;7.77;3.53;;;7.60;4.40;;;;;;5091641;28;20457;-66
2024/03/12 07:27:05;;;;;;;5.00;2.30;;;7.90;4.70;;;;;;5092802;28;20755;-67
2024/03/12 07:29:34;;;;;;;3.53;2.80;;;8.10;3.90;;;;;;5093013;28;20510;-67
2024/03/12 07:32:02;;;;;;;6.80;2.40;;;8.40;2.90;;;;;;5092793;28;20460;-68
2024/03/12 07:34:29;;;;;;;5.73;2.30;;;8.30;1.00;;;;;;5094040;28;20984;-68
2024/03/12 07:36:54;;;;;;;3.70;2.43;;;8.40;1.00;;;;;;5099510;28;20415;-68
2024/03/12 07:39:26;;;;;;;4.10;2.30;;;8.40;1.00;;;;;;5107413;28;20448;-68
2024/03/12 07:41:55;;;;;;;3.10;1.30;;;8.50;1.10;;;;;;5106659;28;20226;-68
2024/03/12 07:44:22;;;;;;;3.70;1.70;;;8.50;1.00;;;;;;5100612;28;20426;-67
2024/03/12 07:46:48;;;;;;;2.83;1.53;;;8.30;1.00;;;;;;5092518;28;20498;-68
2024/03/12 07:49:20;;;;;;;3.40;1.40;;;8.30;1.00;;;;;;5093310;28;20426;-67
2024/03/12 07:51:49;;;;;;;2.63;1.43;;;8.30;1.00;;;;;;5092110;28;20439;-67
2024/03/12 07:54:18;;;;;;;3.10;1.10;;;8.20;1.00;;;;;;5092481;28;20803;-67
2024/03/12 07:56:50;;;;;;;4.10;1.50;;;8.50;1.40;;;;;;5092113;28;20447;-70
2024/03/12 07:59:17;;;;;;;4.40;2.20;;;8.50;1.00;;;;;;5090983;28;20795;-73
2024/03/12 08:01:46;;;;;;;2.63;1.07;;;8.60;1.00;;;;;;5091864;28;20473;-68
2024/03/12 08:04:13;;;;;;;4.63;1.33;;;8.70;1.00;;;;;;5092476;28;20423;-68
2024/03/12 08:06:43;;;;;;;5.77;1.53;;;8.70;1.00;;;;;;5091639;28;20558;-68
2024/03/12 08:09:09;;;;;;;3.27;1.40;;;8.80;1.00;;;;;;5092040;28;20471;-68
2024/03/12 08:11:36;;;;;;;2.33;1.20;;;8.70;1.00;;;;;;5091648;28;20793;-68
2024/03/12 08:14:02;;;;;;;2.53;1.23;;;8.60;1.00;;;;;;5091801;28;20233;-69
2024/03/12 08:16:29;;;;;;;2.50;1.30;;;8.80;1.00;;;;;;5090227;28;20418;-68
2024/03/12 08:18:55;;;;;;;2.00;1.20;;;8.70;1.00;;;;;;5091529;28;20822;-68
2024/03/12 08:21:21;;;;;;;2.93;1.30;;;8.70;1.00;;;;;;5091529;28;20991;-68
2024/03/12 08:23:47;;;;;;;2.47;1.40;;;8.60;1.00;;;;;;5073950;28;20466;-70
2024/03/12 08:26:12;;;;;;;2.87;1.17;;;8.30;1.00;;;;;;5091650;28;20498;-67
2024/03/12 08:28:38;;;;;;;1.87;1.07;;;8.20;1.00;;;;;;5091950;28;20176;-69
2024/03/12 08:31:04;;;;;;;2.33;1.27;;;8.20;1.40;;;;;;5110205;22;20237;-69
2024/03/12 08:33:30;;;;;;;2.00;1.23;;;8.20;1.70;;;;;;5053806;28;20841;-67
2024/03/12 08:35:56;;;;;;;1.90;1.07;;;8.10;2.70;;;;;;5054470;28;20406;-67
2024/03/12 08:38:23;;;;;;;3.03;1.30;;;8.00;3.50;;;;;;5054443;28;20180;-67
2024/03/12 08:40:49;;;;;;;2.53;1.10;;;7.80;6.00;;;;;;5071733;28;20589;-67
2024/03/12 08:43:15;;;;;;;2.70;1.37;;;7.70;9.00;;;;;;5071588;28;20542;-68
2024/03/12 08:45:40;;;;;;;2.57;1.20;;;7.70;10.20;;;;;;5070053;28;20205;-68
2024/03/12 08:48:09;;;;;;;2.93;1.50;;;7.70;12.30;;;;;;5069988;28;21611;-67
2024/03/12 08:50:35;;;;;;;2.20;1.00;;;7.70;12.00;;;;;;5071357;28;20184;-67
2024/03/12 08:53:01;;;;;;;4.13;2.00;;;7.60;11.40;;;;;;5069613;28;20438;-68
2024/03/12 08:55:26;;;;;;;2.83;1.97;;;7.70;13.30;;;;;;5071375;28;20646;-67
2024/03/12 08:57:52;;;;;;;2.33;1.70;;;7.80;12.60;;;;;;5071877;28;20184;-67
2024/03/12 09:00:18;;;;;;;2.63;1.23;;;7.80;13.40;;;;;;5071611;28;20208;-68
2024/03/12 09:02:45;;;;;;;2.63;1.40;;;8.00;13.30;;;;;;5077903;28;20188;-68
2024/03/12 09:05:12;;;;;;;2.90;1.30;;;8.10;11.90;;;;;;5078737;28;20475;-67
2024/03/12 09:07:37;;;;;;;2.77;1.10;;;8.20;10.30;;;;;;5077782;28;20863;-67
2024/03/12 09:10:12;;;;;;;2.50;1.57;;;8.30;10.60;;;;;;5073508;28;20418;-67
2024/03/12 09:12:38;;;;;;;2.47;1.50;;;8.30;9.30;;;;;;5070756;28;20193;-68
2024/03/12 09:15:08;;;;;;;2.30;1.20;;;8.40;9.40;;;;;;5071606;28;20679;-68
2024/03/12 09:17:34;;;;;;;5.80;1.80;;;8.50;9.50;;;;;;5071644;28;20436;-68
2024/03/12 09:20:00;;;;;;;3.17;2.10;;;8.50;9.50;;;;;;5071073;28;20465;-68
2024/03/12 09:22:25;;;;;;;2.90;1.60;;;8.60;9.50;;;;;;5069849;28;20818;-68
2024/03/12 09:24:51;;;;;;;3.73;1.63;;;8.50;9.00;;;;;;5071174;28;20260;-68
2024/03/12 09:27:17;;;;;;;2.63;1.80;;;8.60;8.00;;;;;;5071386;28;20248;-68
2024/03/12 09:29:42;;;;;;;2.70;1.47;;;8.80;7.60;;;;;;5071035;28;20185;-68
2024/03/12 09:32:08;;;;;;;4.00;1.90;;;8.60;7.80;;;;;;5071012;28;20221;-68
2024/03/12 09:34:36;;;;;;;3.93;1.90;;;8.60;9.40;;;;;;5071368;28;20193;-68
2024/03/12 09:37:02;;;;;;;5.40;2.10;;;8.80;7.40;;;;;;5071500;28;20220;-67
2024/03/12 09:39:29;;;;;;;3.30;1.30;;;8.90;8.00;;;;;;5071174;28;20519;-67
2024/03/12 09:41:56;;;;;;;3.60;1.57;;;9.00;6.10;;;;;;5073657;28;20213;-67
2024/03/12 09:44:22;;;;;;;3.50;2.03;;;9.10;5.40;;;;;;5075041;28;20478;-68
2024/03/12 09:46:49;;;;;;;3.17;2.00;;;9.20;4.50;;;;;;5075082;28;20472;-67
2024/03/12 09:49:19;;;;;;;3.33;2.10;;;9.20;3.00;;;;;;5075047;28;20431;-67
2024/03/12 09:51:44;;;;;;;3.90;1.70;;;9.30;2.70;;;;;;5075169;28;20431;-67
2024/03/12 09:54:11;;;;;;;4.33;2.40;;;9.50;2.20;;;;;;5074932;28;20404;-68
2024/03/12 09:56:40;;;;;;;3.43;2.30;;;9.70;1.40;;;;;;5074497;28;20177;-68
2024/03/12 09:59:08;;;;;;;3.23;1.93;;;9.70;1.00;;;;;;5075100;28;20408;-69
2024/03/12 10:01:34;;;;;;;4.73;2.93;;;9.20;1.00;;;;;;5074476;28;20816;-68
2024/03/12 10:04:01;;;;;;;4.13;2.47;;;9.00;1.70;;;;;;5074362;28;20770;-68
2024/03/12 10:06:28;;;;;;;4.40;2.70;;;8.90;2.50;;;;;;5073995;28;20420;-68
2024/03/12 10:08:59;;;;;;;6.00;2.80;;;9.00;2.60;;;;;;5074125;28;20404;-67
2024/03/12 10:11:25;;;;;;;5.70;2.90;;;8.80;3.50;;;;;;5072802;28;20468;-67
2024/03/12 10:13:58;;;;;;;4.30;2.23;;;8.70;4.50;;;;;;5073925;28;20454;-67
2024/03/12 10:16:24;;;;;;;6.93;3.70;;;8.80;4.20;;;;;;5072778;28;20190;-67
2024/03/12 10:19:09;;;;;;;6.40;3.13;;;8.80;4.10;;;;;;5073949;28;20444;-67
2024/03/12 10:21:40;;;;;;;12.60;5.10;;;9.10;4.40;;;;;;5073644;28;20502;-67
2024/03/12 10:24:21;;;;;;;29.30;9.83;;;9.10;2.40;;;;;;5072343;28;20424;-67
2024/03/12 10:26:48;;;;;;;28.83;10.07;;;9.10;2.80;;;;;;5073797;28;20483;-68
2024/03/12 10:29:20;;;;;;;8.63;4.63;;;9.10;2.50;;;;;;5073865;28;20412;-67
2024/03/12 10:31:47;;;;;;;13.90;7.07;;;9.40;1.10;;;;;;5073603;28;20962;-68
2024/03/12 10:34:17;;;;;;;26.93;9.23;;;9.50;1.10;;;;;;5072297;28;20420;-68
2024/03/12 10:36:44;;;;;;;25.63;8.30;;;9.70;1.20;;;;;;5073755;28;20416;-67
2024/03/12 10:39:24;;;;;;;6.07;3.60;;;9.70;1.00;;;;;;5072994;28;20494;-67
2024/03/12 10:41:55;;;;;;;15.50;6.13;;;9.60;1.00;;;;;;5074152;28;20531;-67
2024/03/12 10:44:22;;;;;;;31.67;8.70;;;9.50;1.00;;;;;;5072578;28;20408;-67
2024/03/12 10:46:49;;;;;;;9.57;3.90;;;9.50;1.00;;;;;;5073374;28;20495;-67
2024/03/12 10:49:17;;;;;;;5.77;3.40;;;9.30;1.00;;;;;;5073743;28;20408;-67
2024/03/12 10:51:44;;;;;;;27.63;4.93;;;9.10;1.10;;;;;;5073846;28;20988;-66
2024/03/12 10:54:13;;;;;;;10.93;4.10;;;9.10;1.50;;;;;;5073355;28;20888;-68
2024/03/12 10:56:41;;;;;;;22.23;7.60;;;9.10;2.00;;;;;;5073753;28;20429;-68
2024/03/12 10:59:08;;;;;;;7.80;4.20;;;8.90;3.40;;;;;;5073743;28;20404;-68
2024/03/12 11:01:35;;;;;;;9.70;5.13;;;9.10;3.10;;;;;;5073556;28;20872;-67
2024/03/12 11:04:02;;;;;;;6.57;4.23;;;9.40;2.40;;;;;;5072160;28;20444;-66
2024/03/12 11:06:29;;;;;;;22.53;7.60;;;9.50;1.10;;;;;;5072977;28;20416;-67
2024/03/12 11:08:56;;;;;;;10.50;4.47;;;9.50;1.10;;;;;;5073162;28;20462;-66
2024/03/12 11:11:21;;;;;;;7.23;3.93;;;9.40;1.00;;;;;;5071879;28;20440;-68
2024/03/12 11:13:49;;;;;;;8.43;4.03;;;9.40;1.20;;;;;;5071642;28;20857;-68
2024/03/12 11:16:18;;;;;;;10.10;5.80;;;9.30;1.00;;;;;;5072050;28;20205;-67
2024/03/12 11:18:44;;;;;;;19.00;6.10;;;9.30;1.10;;;;;;5073047;28;20416;-67
2024/03/12 11:21:29;;;;;;;6.33;3.57;;;9.20;1.70;;;;;;5073337;28;20457;-67
2024/03/12 11:23:58;;;;;;;7.10;4.17;;;9.10;1.90;;;;;;5072039;28;20420;-68
2024/03/12 11:26:29;;;;;;;5.77;4.33;;;9.20;3.00;;;;;;5075600;28;20416;-68
2024/03/12 11:28:55;;;;;;;7.03;4.00;;;9.30;2.40;;;;;;5080218;28;20412;-68
2024/03/12 11:31:22;;;;;;;6.30;3.90;;;9.50;1.10;;;;;;5080010;28;20989;-68
2024/03/12 11:33:51;;;;;;;8.17;4.60;;;9.60;1.20;;;;;;5081551;28;20490;-69
2024/03/12 11:36:32;;;;;;;4.83;3.50;;;9.70;1.00;;;;;;5079926;28;20449;-68
2024/03/12 11:39:04;;;;;;;4.50;3.33;;;9.80;1.00;;;;;;5075801;28;20404;-67
2024/03/12 11:41:59;;;;;;;8.63;3.40;;;9.90;1.00;;;;;;5073764;28;20830;-67
2024/03/12 11:44:48;;;;;;;6.37;3.93;;;10.00;1.00;;;;;;5073511;28;20438;-68
2024/03/12 11:47:30;;;;;;;5.00;2.97;;;10.10;1.00;;;;;;5073134;28;20450;-68
2024/03/12 11:49:56;;;;;;;6.07;4.17;;;10.00;1.00;;;;;;5071468;28;20568;-68
2024/03/12 11:52:21;;;;;;;5.80;3.73;;;9.90;1.00;;;;;;5072375;28;20428;-68
2024/03/12 11:54:48;;;;;;;8.10;4.40;;;9.80;1.00;;;;;;5072353;28;20507;-67
2024/03/12 11:57:29;;;;;;;8.53;5.00;;;9.70;1.00;;;;;;5072158;28;20315;-67
2024/03/12 11:59:56;;;;;;;6.40;3.53;;;9.60;1.00;;;;;;5070388;28;20419;-68
2024/03/12 12:02:23;;;;;;;5.30;2.90;;;9.30;1.00;;;;;;5072002;28;20447;-68
2024/03/12 12:04:51;;;;;;;8.80;3.23;;;9.10;1.90;;;;;;5071119;28;20412;-68
2024/03/12 12:07:18;;;;;;;9.17;3.23;;;9.00;2.70;;;;;;5071931;28;20411;-67
2024/03/12 12:09:48;;;;;;;4.87;3.30;;;8.90;3.50;;;;;;5071967;28;20400;-67
2024/03/12 12:12:14;;;;;;;5.97;2.80;;;8.70;3.90;;;;;;5070236;28;20476;-67
2024/03/12 12:14:49;;;;;;;4.93;3.30;;;8.70;4.20;;;;;;5072011;28;20400;-67
2024/03/12 12:17:25;;;;;;;6.10;3.40;;;8.70;4.80;;;;;;5072323;28;20410;-67
2024/03/12 12:20:18;;;;;;;6.77;3.40;;;8.60;4.80;;;;;;5078705;28;20400;-67
2024/03/12 12:22:46;;;;;;;6.23;3.50;;;8.70;5.10;;;;;;5081257;28;20452;-67
2024/03/12 12:25:15;;;;;;;4.80;3.03;;;8.70;4.70;;;;;;5079017;28;20503;-68
2024/03/12 12:27:42;;;;;;;6.07;4.13;;;8.80;5.80;;;;;;5075205;28;20411;-69
2024/03/12 12:30:09;;;;;;;4.90;3.03;;;8.80;5.90;;;;;;5073857;28;20446;-67
2024/03/12 12:32:37;;;;;;;5.23;2.70;;;8.90;5.10;;;;;;5074963;28;20514;-67
2024/03/12 12:35:10;;;;;;;6.27;3.07;;;8.80;5.20;;;;;;5074599;28;20419;-68
2024/03/12 12:37:37;;;;;;;3.77;2.23;;;8.90;4.10;;;;;;5074803;28;20412;-67
2024/03/12 12:40:07;;;;;;;5.03;2.43;;;8.80;3.10;;;;;;5074158;28;20413;-67
2024/03/12 12:42:33;;;;;;;8.10;2.70;;;8.90;3.70;;;;;;5071893;28;20446;-67
2024/03/12 12:45:04;;;;;;;4.80;2.73;;;8.90;3.10;;;;;;5072608;28;20436;-67
2024/03/12 12:47:33;;;;;;;6.40;3.20;;;9.00;1.90;;;;;;5072861;28;20445;-68
2024/03/12 12:49:59;;;;;;;4.77;2.60;;;9.00;1.00;;;;;;5072634;28;20423;-68
2024/03/12 12:52:26;;;;;;;6.00;3.10;;;9.10;2.00;;;;;;5072704;28;20435;-68
2024/03/12 12:54:59;;;;;;;4.47;3.00;;;9.00;1.00;;;;;;5070860;28;20170;-68
2024/03/12 12:57:34;;;;;;;21.47;6.23;;;9.00;1.00;;;;;;5071197;28;20442;-68
2024/03/12 13:00:14;;;;;;;11.80;4.60;;;8.90;1.00;;;;;;5071970;28;20407;-67
2024/03/12 13:02:40;;;;;;;7.13;3.40;;;9.00;1.00;;;;;;5072114;28;20436;-67
2024/03/12 13:05:06;;;;;;;14.03;5.97;;;9.10;1.00;;;;;;5070597;28;20431;-67
2024/03/12 13:07:33;;;;;;;8.73;6.17;;;9.10;1.00;;;;;;5072133;28;20209;-67
2024/03/12 13:10:20;;;;;;;8.27;6.20;;;9.10;1.00;;;;;;5072131;28;20181;-67
2024/03/12 13:12:47;;;;;;;10.03;5.60;;;9.10;1.00;;;;;;5072436;28;20443;-67